Time;durP1;ratioP1;P1;durP2;ratioP2;P2;SDS_P1;SDS_P2;PMS_P1;PMS_P2;Temp;Humidity;BMP_temperature;BMP_pressure;BME280_temperature;BME280_humidity;BME280_pressure;Samples;Min_cycle;Max_cycle;Signal;HPM_P1;HPM_P2
2022/09/17 00:02:24;;;;;;;2.15;0.88;;;11.90;99.90;;;11.84;100.00;100661.03;5208049;28;20056;-69
2022/09/17 00:04:56;;;;;;;7.78;1.33;;;11.90;99.90;;;11.83;100.00;100667.13;5208115;28;20077;-72
2022/09/17 00:07:29;;;;;;;2.70;1.30;;;11.90;99.90;;;11.82;100.00;100661.00;5207593;28;20042;-70
2022/09/17 00:10:01;;;;;;;3.63;1.00;;;11.90;99.90;;;11.84;100.00;100663.66;5207622;28;20042;-71
2022/09/17 00:12:33;;;;;;;2.70;1.00;;;11.90;99.90;;;11.84;100.00;100668.88;5219377;28;20149;-69
2022/09/17 00:15:09;;;;;;;4.82;1.30;;;11.90;99.90;;;11.84;100.00;100663.66;5187218;28;20042;-72
2022/09/17 00:17:42;;;;;;;1.58;1.10;;;11.90;99.90;;;11.85;100.00;100661.09;5187087;28;20056;-70
2022/09/17 00:20:17;;;;;;;2.22;0.98;;;11.90;99.90;;;11.87;100.00;100667.25;5187131;28;20427;-71
2022/09/17 00:22:49;;;;;;;2.30;1.10;;;11.90;99.90;;;11.92;100.00;100663.00;5187342;28;20418;-71
2022/09/17 00:25:22;;;;;;;3.63;0.82;;;11.90;99.90;;;11.94;100.00;100665.69;5185847;28;20073;-70
2022/09/17 00:27:55;;;;;;;1.77;0.68;;;11.90;99.90;;;11.98;100.00;100662.28;5186199;28;20037;-70
2022/09/17 00:30:28;;;;;;;1.33;0.75;;;11.90;99.90;;;12.03;100.00;100657.22;5185428;28;20545;-71
2022/09/17 00:33:01;;;;;;;2.95;0.98;;;12.00;99.90;;;12.09;100.00;100662.59;5187086;28;20176;-70
2022/09/17 00:35:33;;;;;;;2.15;1.08;;;12.10;99.90;;;12.12;100.00;100660.94;5186776;28;20561;-71
2022/09/17 00:38:06;;;;;;;2.17;0.90;;;12.10;99.90;;;12.16;100.00;100660.19;5187422;28;20125;-70
2022/09/17 00:40:38;;;;;;;4.20;1.13;;;12.10;99.90;;;12.20;100.00;100658.56;5187409;28;20042;-70
2022/09/17 00:43:12;;;;;;;1.95;0.90;;;12.20;99.90;;;12.25;100.00;100666.47;5179028;28;20140;-71
2022/09/17 00:45:45;;;;;;;2.63;0.82;;;12.20;99.90;;;12.27;100.00;100659.59;5184069;28;20392;-70
2022/09/17 00:48:18;;;;;;;2.92;1.05;;;12.20;99.90;;;12.23;100.00;100663.84;5202046;28;20050;-70
2022/09/17 00:50:55;;;;;;;2.53;1.10;;;12.20;99.90;;;12.23;100.00;100669.06;5186587;28;20042;-72
2022/09/17 00:53:29;;;;;;;3.67;1.02;;;12.20;99.90;;;12.22;100.00;100662.97;5186499;28;20041;-70
2022/09/17 00:56:07;;;;;;;1.65;0.90;;;12.20;99.90;;;12.22;100.00;100668.19;5185111;28;20403;-69
2022/09/17 00:58:42;;;;;;;3.78;0.68;;;12.20;99.90;;;12.23;100.00;100671.69;5185658;28;20080;-70
2022/09/17 01:01:17;;;;;;;2.85;0.93;;;12.20;99.90;;;12.25;100.00;100666.47;5186295;28;20056;-70
2022/09/17 01:03:49;;;;;;;4.18;0.93;;;12.20;99.90;;;12.21;100.00;100663.81;5185115;28;20085;-72
2022/09/17 01:06:33;;;;;;;4.05;1.10;;;12.20;99.90;;;12.19;100.00;100673.34;5186238;28;20049;-70
2022/09/17 01:09:29;;;;;;;3.22;1.10;;;12.20;99.90;;;12.19;100.00;100670.72;5186253;28;20133;-70
2022/09/17 01:12:43;;;;;;;3.40;1.10;;;12.20;99.90;;;12.19;100.00;100668.13;5185303;28;20096;-69
2022/09/17 01:15:26;;;;;;;6.55;1.45;;;12.20;99.90;;;12.17;100.00;100663.69;5181587;28;20476;-71
2022/09/17 01:18:17;;;;;;;4.85;1.13;;;12.20;99.90;;;12.16;100.00;100672.38;5185867;28;20050;-70
2022/09/17 01:21:30;;;;;;;4.00;1.33;;;12.10;99.90;;;12.11;100.00;100666.13;5186066;28;20490;-70
2022/09/17 01:24:47;;;;;;;;;;;12.10;99.90;;;12.10;100.00;100667.84;5184927;28;20057;-69
2022/09/17 01:28:00;;;;;;;2.78;1.23;;;12.10;99.90;;;12.10;100.00;100678.31;5184992;28;19921;-71
2022/09/17 01:31:15;;;;;;;2.80;0.95;;;12.10;99.90;;;12.08;100.00;100681.75;5185771;28;20049;-69
2022/09/17 01:34:01;;;;;;;3.22;0.90;;;12.10;99.90;;;12.06;100.00;100679.09;5181019;28;20529;-71
2022/09/17 01:36:53;;;;;;;2.80;1.30;;;12.10;99.90;;;12.09;100.00;100676.53;5185532;28;20128;-70
2022/09/17 01:39:38;;;;;;;2.92;1.23;;;12.10;99.90;;;12.04;100.00;100672.91;5185514;28;20060;-71
2022/09/17 01:42:22;;;;;;;7.13;1.17;;;12.10;99.90;;;12.00;100.00;100673.69;5184462;28;20045;-69
2022/09/17 01:45:01;;;;;;;2.13;1.02;;;12.00;99.90;;;11.98;100.00;100675.34;5193342;28;20439;-71
2022/09/17 01:47:39;;;;;;;7.13;1.20;;;12.00;99.90;;;11.98;100.00;100674.47;5184087;28;20069;-70
2022/09/17 01:50:17;;;;;;;8.27;1.33;;;12.00;99.90;;;12.00;100.00;100680.63;5185673;28;20038;-70
2022/09/17 01:52:53;;;;;;;2.72;1.00;;;12.00;99.90;;;11.99;100.00;100684.97;5185321;28;20516;-71
2022/09/17 01:55:32;;;;;;;6.35;1.10;;;12.00;99.90;;;12.02;100.00;100685.06;5185602;28;20119;-70
2022/09/17 01:58:12;;;;;;;3.20;0.73;;;12.10;99.90;;;12.06;100.00;100686.00;5183780;28;20124;-70
2022/09/17 02:00:51;;;;;;;3.22;1.02;;;12.10;99.90;;;12.05;100.00;100685.13;5185345;28;20077;-70
2022/09/17 02:03:30;;;;;;;5.38;1.17;;;12.10;99.90;;;12.05;100.00;100687.75;5183570;28;20054;-71
2022/09/17 02:06:09;;;;;;;4.03;0.93;;;12.10;99.90;;;12.10;100.00;100693.97;5183964;28;20430;-71
2022/09/17 02:08:47;;;;;;;3.45;1.30;;;12.10;99.90;;;12.14;100.00;100695.84;5185282;28;20073;-72
2022/09/17 02:11:20;;;;;;;2.17;0.70;;;12.10;99.90;;;12.15;100.00;100692.38;5185267;28;20042;-71
2022/09/17 02:13:58;;;;;;;3.03;1.13;;;12.20;99.90;;;12.18;100.00;100695.06;5184160;28;20470;-70
2022/09/17 02:16:33;;;;;;;3.05;1.00;;;12.20;99.90;;;12.19;100.00;100696.88;5185041;28;20041;-69
2022/09/17 02:19:12;;;;;;;2.60;1.00;;;12.20;99.90;;;12.18;100.00;100696.78;5185246;28;20046;-72
2022/09/17 02:21:49;;;;;;;2.25;1.40;;;12.20;99.90;;;12.19;100.00;100709.00;5185080;28;20513;-72
2022/09/17 02:24:25;;;;;;;4.63;1.00;;;12.20;99.90;;;12.16;100.00;100703.72;5185086;28;20046;-71
2022/09/17 02:27:03;;;;;;;1.55;1.05;;;12.20;99.90;;;12.15;100.00;100700.22;5184640;28;20057;-70
2022/09/17 02:29:38;;;;;;;4.82;1.20;;;12.20;99.90;;;12.16;100.00;100694.16;5184937;28;20042;-71
2022/09/17 02:32:11;;;;;;;3.92;0.98;;;12.20;99.90;;;12.16;100.00;100693.28;5185037;28;20050;-69
2022/09/17 02:34:44;;;;;;;4.75;1.38;;;12.20;99.90;;;12.10;100.00;100699.22;5184737;28;20148;-72
2022/09/17 02:37:17;;;;;;;4.20;1.52;;;12.20;99.90;;;12.07;100.00;100698.25;5199680;28;20064;-69
2022/09/17 02:39:49;;;;;;;5.45;1.10;;;12.10;99.90;;;12.06;100.00;100702.59;5184780;28;20379;-70
2022/09/17 02:42:31;;;;;;;3.33;1.10;;;12.10;99.90;;;12.06;100.00;100693.84;5184804;28;20042;-70
2022/09/17 02:45:13;;;;;;;2.40;1.15;;;12.10;99.90;;;12.02;100.00;100700.75;5183420;28;20149;-71
2022/09/17 02:48:07;;;;;;;4.60;1.00;;;12.00;99.90;;;12.01;100.00;100709.44;5184461;28;20041;-70
2022/09/17 02:51:05;;;;;;;4.28;0.90;;;12.10;99.90;;;11.98;100.00;100706.72;5183529;28;20046;-71
2022/09/17 02:53:47;;;;;;;2.60;0.90;;;12.00;99.90;;;11.98;100.00;100698.88;5183462;28;20054;-70
2022/09/17 02:56:32;;;;;;;2.58;0.80;;;12.00;99.90;;;11.95;100.00;100704.03;5184489;28;20049;-70
2022/09/17 02:59:17;;;;;;;3.45;0.90;;;12.00;99.90;;;11.94;100.00;100703.16;5183222;28;20133;-69
2022/09/17 03:02:03;;;;;;;3.63;0.95;;;12.00;99.90;;;11.94;100.00;100708.38;5184556;28;20473;-69
2022/09/17 03:04:36;;;;;;;3.50;1.30;;;12.00;99.90;;;11.97;100.00;100702.34;5184558;28;20157;-70
2022/09/17 03:07:12;;;;;;;3.65;0.93;;;12.00;99.90;;;11.98;100.00;100709.31;5184305;28;20050;-71
2022/09/17 03:09:44;;;;;;;3.72;1.27;;;12.00;99.90;;;11.98;100.00;100708.44;5188319;28;20050;-70
2022/09/17 03:12:17;;;;;;;2.83;0.95;;;12.00;99.90;;;12.00;100.00;100701.53;5187544;28;20057;-72
2022/09/17 03:14:52;;;;;;;4.22;1.30;;;12.00;99.90;;;12.00;100.00;100705.03;5188523;28;20041;-70
2022/09/17 03:17:27;;;;;;;3.80;1.40;;;12.00;99.90;;;12.01;100.00;100704.19;5188344;28;20053;-72
2022/09/17 03:19:59;;;;;;;3.97;1.38;;;12.00;99.90;;;11.99;100.00;100708.47;5188461;28;20045;-71
2022/09/17 03:22:32;;;;;;;4.10;1.20;;;12.00;99.90;;;11.97;100.00;100702.34;5186927;28;20046;-70
2022/09/17 03:25:06;;;;;;;4.63;1.15;;;12.00;99.90;;;11.96;100.00;100700.56;5188370;28;20076;-69
2022/09/17 03:27:39;;;;;;;4.65;1.05;;;12.00;99.90;;;11.97;100.00;100693.63;5188011;28;20570;-70
2022/09/17 03:30:12;;;;;;;5.28;1.30;;;12.00;99.90;;;11.97;100.00;100694.50;5186956;28;20092;-71
2022/09/17 03:32:44;;;;;;;3.47;1.00;;;12.00;99.90;;;11.98;100.00;100696.25;5187083;28;20145;-70
2022/09/17 03:35:16;;;;;;;2.05;0.68;;;12.00;99.90;;;11.97;100.00;100699.72;5186630;28;20471;-68
2022/09/17 03:37:50;;;;;;;6.32;1.50;;;12.00;99.90;;;11.98;100.00;100701.47;5186557;28;20061;-70
2022/09/17 03:40:23;;;;;;;4.10;1.13;;;12.00;99.90;;;12.01;100.00;100708.53;5187096;28;20052;-70
2022/09/17 03:42:58;;;;;;;2.50;1.00;;;12.00;99.90;;;12.00;100.00;100710.28;5187919;28;20037;-71
2022/09/17 03:45:30;;;;;;;2.45;0.90;;;12.00;99.90;;;12.01;100.00;100714.66;5187669;28;20498;-71
2022/09/17 03:48:03;;;;;;;5.18;1.27;;;12.00;99.90;;;12.06;100.00;100718.28;5186436;28;20046;-71
2022/09/17 03:50:35;;;;;;;4.60;1.73;;;12.00;99.90;;;12.05;100.00;100711.25;5186461;28;20045;-70
2022/09/17 03:53:08;;;;;;;3.78;1.25;;;12.10;99.90;;;12.08;100.00;100716.59;5186560;28;20061;-70
2022/09/17 03:55:41;;;;;;;2.72;0.90;;;12.10;99.90;;;12.09;100.00;100713.13;5187287;28;20050;-70
2022/09/17 03:58:13;;;;;;;4.28;0.85;;;12.10;99.90;;;12.11;100.00;100719.25;5186266;28;20052;-71
2022/09/17 04:00:45;;;;;;;3.15;0.90;;;12.10;99.90;;;12.08;100.00;100711.34;5187635;28;20612;-70
2022/09/17 04:03:17;;;;;;;2.55;1.27;;;12.10;99.90;;;12.06;100.00;100713.06;5187526;28;20060;-71
2022/09/17 04:05:49;;;;;;;3.90;0.95;;;12.10;99.90;;;12.07;100.00;100709.59;5185952;28;20053;-70
2022/09/17 04:08:23;;;;;;;4.10;1.00;;;12.10;99.90;;;12.08;100.00;100721.81;5202611;28;20050;-70
2022/09/17 04:10:55;;;;;;;4.20;1.13;;;12.00;99.90;;;12.08;100.00;100721.81;5187523;28;20061;-70
2022/09/17 04:13:28;;;;;;;5.40;1.13;;;12.10;99.90;;;12.08;100.00;100724.41;5186325;28;20042;-71
2022/09/17 04:16:01;;;;;;;4.15;0.98;;;12.10;99.90;;;12.06;100.00;100722.59;5187085;28;20211;-72
2022/09/17 04:18:33;;;;;;;2.53;0.88;;;12.10;99.90;;;12.06;100.00;100720.88;5187287;28;20042;-70
2022/09/17 04:21:06;;;;;;;2.72;1.10;;;12.00;99.90;;;12.06;100.00;100727.81;5201715;28;20535;-70
2022/09/17 04:23:39;;;;;;;4.03;0.90;;;12.00;99.90;;;12.06;100.00;100723.50;5187263;28;20048;-70
2022/09/17 04:26:12;;;;;;;2.05;0.80;;;12.00;99.90;;;12.10;100.00;100734.91;5185797;28;20517;-71
2022/09/17 04:28:44;;;;;;;2.67;0.73;;;12.10;99.90;;;12.10;100.00;100725.34;5185840;28;20152;-70
2022/09/17 04:31:17;;;;;;;6.15;1.25;;;12.10;99.90;;;12.12;100.00;100728.00;5186900;28;20042;-71
2022/09/17 04:33:49;;;;;;;4.68;0.98;;;12.10;99.90;;;12.11;100.00;100727.09;5186957;28;20426;-71
2022/09/17 04:36:21;;;;;;;3.40;1.08;;;12.10;99.90;;;12.11;100.00;100729.72;5186663;28;20034;-70
2022/09/17 04:38:54;;;;;;;3.80;1.25;;;12.10;99.90;;;12.11;100.00;100731.44;5186815;28;20050;-70
2022/09/17 04:41:26;;;;;;;3.83;0.77;;;12.10;99.90;;;12.09;100.00;100728.81;5185511;28;20174;-70
2022/09/17 04:43:58;;;;;;;3.55;0.88;;;12.10;99.90;;;12.08;100.00;100729.66;5187040;28;20046;-70
2022/09/17 04:46:30;;;;;;;4.05;0.80;;;12.00;99.90;;;12.07;100.00;100730.50;5186588;28;20042;-72
2022/09/17 04:49:02;;;;;;;1.98;0.82;;;12.00;99.90;;;12.07;100.00;100727.88;5186778;28;20491;-69
2022/09/17 04:51:35;;;;;;;4.93;1.42;;;12.00;99.90;;;12.05;100.00;100733.88;5185268;28;20050;-71
2022/09/17 04:54:08;;;;;;;4.50;1.00;;;12.00;99.90;;;12.01;100.00;100738.16;5186625;28;20041;-70
2022/09/17 04:56:40;;;;;;;7.15;1.52;;;12.00;99.90;;;11.98;100.00;100738.06;5186235;28;20045;-69
2022/09/17 04:59:12;;;;;;;3.08;1.00;;;12.00;99.90;;;11.96;100.00;100742.38;5185152;28;20140;-68
2022/09/17 05:01:45;;;;;;;6.03;1.10;;;11.90;99.90;;;11.93;100.00;100743.19;5186429;28;20529;-71
2022/09/17 05:04:17;;;;;;;2.65;0.90;;;11.90;99.90;;;11.91;100.00;100747.44;5186310;28;20042;-70
2022/09/17 05:06:49;;;;;;;6.63;1.00;;;11.90;99.90;;;11.92;100.00;100749.22;5184672;28;20066;-71
2022/09/17 05:09:22;;;;;;;4.05;1.05;;;11.90;99.90;;;11.92;100.00;100743.09;5186067;28;20060;-69
2022/09/17 05:11:54;;;;;;;6.78;1.15;;;11.90;99.90;;;11.92;100.00;100746.59;5185760;28;20416;-71
2022/09/17 05:14:26;;;;;;;2.67;1.48;;;11.90;99.90;;;11.94;100.00;100749.28;5185537;28;20034;-71
2022/09/17 05:16:59;;;;;;;5.20;1.05;;;11.90;99.90;;;11.92;100.00;100751.81;5183791;28;20141;-70
2022/09/17 05:19:31;;;;;;;5.60;0.93;;;11.90;99.90;;;11.92;100.00;100750.94;5186052;28;20069;-69
2022/09/17 05:22:03;;;;;;;2.20;0.80;;;11.90;99.90;;;11.91;100.00;100754.41;5184913;28;20068;-71
2022/09/17 05:24:38;;;;;;;4.63;0.98;;;11.90;99.90;;;11.87;100.00;100747.34;5184765;28;20045;-71
2022/09/17 05:27:10;;;;;;;3.95;0.80;;;11.90;99.90;;;11.85;100.00;100746.38;5185816;28;20502;-70
2022/09/17 05:29:44;;;;;;;3.97;0.77;;;11.80;99.90;;;11.88;100.00;100756.94;5185651;28;20049;-70
2022/09/17 05:32:16;;;;;;;5.28;1.20;;;11.80;99.90;;;11.87;100.00;100766.50;5183616;28;20513;-71
2022/09/17 05:34:49;;;;;;;2.90;0.82;;;11.90;99.90;;;11.90;100.00;100758.75;5184904;28;20054;-70
2022/09/17 05:37:21;;;;;;;3.38;0.65;;;11.90;99.90;;;11.91;100.00;100765.72;5184363;28;20426;-70
2022/09/17 05:39:54;;;;;;;4.00;0.77;;;11.90;99.90;;;11.92;100.00;100757.06;5184307;28;20502;-69
2022/09/17 05:42:26;;;;;;;2.97;0.82;;;11.90;99.90;;;11.93;100.00;100764.06;5186151;28;20521;-71
2022/09/17 05:44:58;;;;;;;3.92;0.90;;;11.90;99.90;;;11.92;100.00;100759.66;5184472;28;20065;-70
2022/09/17 05:47:30;;;;;;;1.98;0.70;;;11.90;99.90;;;11.93;100.00;100774.53;5185170;28;20378;-70
2022/09/17 05:50:03;;;;;;;7.60;1.30;;;11.90;99.90;;;11.92;100.00;100780.56;5185610;28;20046;-71
2022/09/17 05:52:35;;;;;;;2.95;0.85;;;11.90;99.90;;;11.91;100.00;100775.31;5184034;28;20045;-70
2022/09/17 05:55:09;;;;;;;5.55;0.77;;;11.90;99.90;;;11.94;100.00;100780.63;5185419;28;20046;-71
2022/09/17 05:57:41;;;;;;;3.35;0.95;;;11.90;99.90;;;11.91;100.00;100791.84;5184979;28;20502;-70
2022/09/17 06:00:15;;;;;;;4.43;0.73;;;12.00;99.90;;;11.94;100.00;100786.75;5184042;28;20046;-71
2022/09/17 06:02:54;;;;;;;5.05;1.00;;;12.00;99.90;;;11.99;100.00;100785.97;5185054;28;20438;-70
2022/09/17 06:05:26;;;;;;;3.80;0.93;;;12.00;99.90;;;12.04;100.00;100787.00;5184846;28;20433;-58
2022/09/17 06:07:58;;;;;;;1.67;0.65;;;12.00;99.90;;;12.08;100.00;100794.97;5184241;28;20119;-57
2022/09/17 06:10:32;;;;;;;2.00;0.80;;;12.10;99.90;;;12.17;100.00;100790.00;5182937;28;20053;-56
2022/09/17 06:13:04;;;;;;;1.08;0.60;;;12.10;99.90;;;12.23;100.00;100790.16;5184471;28;20052;-57
2022/09/17 06:15:36;;;;;;;5.43;0.95;;;12.20;99.90;;;12.36;100.00;100801.84;5184113;28;20050;-56
2022/09/17 06:18:09;;;;;;;5.75;0.88;;;12.30;99.90;;;12.89;100.00;100804.13;5184180;28;20053;-56
2022/09/17 06:20:41;;;;;;;3.80;0.88;;;12.60;99.90;;;13.12;100.00;100800.34;5184267;28;20089;-55
2022/09/17 06:23:13;;;;;;;3.10;0.80;;;12.90;99.90;;;13.06;100.00;100813.28;5184047;28;20068;-58
2022/09/17 06:25:52;;;;;;;2.42;0.60;;;12.90;99.90;;;13.30;100.00;100803.47;5183652;28;20053;-57
2022/09/17 06:28:25;;;;;;;3.92;0.77;;;13.10;99.90;;;13.90;100.00;100815.28;5182975;28;20054;-55
2022/09/17 06:31:01;;;;;;;3.38;0.95;;;13.40;99.90;;;14.58;100.00;100809.69;5184055;28;20487;-56
2022/09/17 06:33:33;;;;;;;3.58;0.90;;;13.90;99.90;;;15.45;100.00;100814.69;5184828;28;20145;-56
2022/09/17 06:36:08;;;;;;;5.18;1.00;;;14.60;99.90;;;16.50;100.00;100817.84;5183514;28;20046;-56
2022/09/17 06:38:40;;;;;;;4.25;0.90;;;15.40;99.90;;;16.81;100.00;100813.78;5183950;28;20076;-56
2022/09/17 06:41:15;;;;;;;3.55;0.80;;;15.90;99.90;;;16.49;99.13;100816.06;5184071;28;20133;-57
2022/09/17 06:43:47;;;;;;;5.38;0.63;;;15.90;99.90;;;16.21;100.00;100811.34;5183375;28;20044;-55
2022/09/17 06:46:19;;;;;;;4.18;0.80;;;15.80;99.90;;;16.43;100.00;100810.75;5184020;28;20038;-56
2022/09/17 06:48:51;;;;;;;7.30;1.02;;;15.90;99.90;;;16.97;100.00;100817.47;5183946;28;20053;-55
2022/09/17 06:51:23;;;;;;;3.97;0.50;;;16.30;99.90;;;17.14;98.12;100817.59;5183751;28;20085;-56
2022/09/17 06:53:55;;;;;;;5.45;1.20;;;16.50;99.90;;;17.07;96.51;100813.16;5184006;28;20068;-55
2022/09/17 06:56:29;;;;;;;3.53;0.90;;;16.60;99.90;;;16.83;96.77;100816.47;5183568;28;20045;-59
2022/09/17 06:59:01;;;;;;;6.03;0.95;;;16.40;99.90;;;16.60;98.49;100817.94;5183803;28;20050;-56
2022/09/17 07:01:33;;;;;;;3.38;0.73;;;16.40;99.90;;;16.24;98.35;100819.31;5183823;28;20054;-55
2022/09/17 07:04:06;;;;;;;2.13;0.80;;;16.20;99.90;;;15.83;99.54;100821.38;5182598;28;20060;-55
2022/09/17 07:06:38;;;;;;;3.47;0.85;;;15.80;99.90;;;15.41;100.00;100822.50;5183613;28;20053;-55
2022/09/17 07:09:10;;;;;;;2.53;0.80;;;15.50;99.90;;;15.07;100.00;100826.31;5183910;28;20100;-55
2022/09/17 07:11:44;;;;;;;4.30;1.00;;;15.10;99.90;;;14.75;100.00;100823.13;5183724;28;20045;-57
2022/09/17 07:14:17;;;;;;;2.47;0.52;;;14.80;99.90;;;14.52;100.00;100828.81;5183775;28;20053;-56
2022/09/17 07:16:50;;;;;;;3.80;0.93;;;14.60;99.90;;;14.34;100.00;100825.78;5183520;28;20042;-56
2022/09/17 07:19:22;;;;;;;4.78;1.02;;;14.40;99.90;;;14.18;100.00;100835.09;5183737;28;20056;-54
2022/09/17 07:21:54;;;;;;;4.07;1.00;;;14.20;99.90;;;14.02;100.00;100835.63;5183607;28;20050;-55
2022/09/17 07:24:26;;;;;;;3.55;0.77;;;14.00;99.90;;;13.92;100.00;100837.16;5183720;28;20076;-55
2022/09/17 07:26:59;;;;;;;6.90;1.02;;;13.90;99.90;;;13.89;100.00;100837.09;5183510;28;20034;-54
2022/09/17 07:29:31;;;;;;;3.25;0.80;;;13.80;99.90;;;13.80;100.00;100842.13;5183641;28;20427;-55
2022/09/17 07:32:04;;;;;;;5.13;1.40;;;13.80;99.90;;;13.77;100.00;100842.94;5183904;28;20514;-54
2022/09/17 07:34:36;;;;;;;6.75;1.00;;;13.70;99.90;;;13.76;100.00;100845.53;5183562;28;20046;-54
2022/09/17 07:37:08;;;;;;;3.83;0.70;;;13.60;99.90;;;13.84;100.00;100839.63;5310098;22;20060;-50
2022/09/17 07:39:41;;;;;;;4.10;1.08;;;13.70;99.90;;;14.10;100.00;100842.78;5200556;28;20050;-49
2022/09/17 07:42:14;;;;;;;2.67;0.60;;;13.90;99.90;;;14.33;100.00;100840.63;5183620;28;20096;-50
2022/09/17 07:44:46;;;;;;;2.80;0.68;;;14.00;99.90;;;14.51;100.00;100844.53;5183743;28;20046;-51
2022/09/17 07:47:18;;;;;;;2.20;0.98;;;14.20;99.90;;;14.54;100.00;100839.31;5183817;28;20037;-51
2022/09/17 07:49:50;;;;;;;3.97;0.77;;;14.30;99.90;;;14.47;100.00;100845.31;5183620;28;20038;-51
2022/09/17 07:52:23;;;;;;;3.97;0.90;;;14.30;99.90;;;14.31;100.00;100847.59;5183792;28;20045;-52
2022/09/17 07:54:55;;;;;;;3.55;1.15;;;14.20;99.90;;;14.14;100.00;100848.97;5183253;28;20469;-52
2022/09/17 07:57:29;;;;;;;3.83;1.02;;;14.10;99.90;;;14.11;100.00;100843.69;5185940;28;20049;-51
2022/09/17 08:00:01;;;;;;;3.88;0.88;;;14.00;99.90;;;14.19;100.00;100835.97;5187173;28;20129;-52
2022/09/17 08:02:43;;;;;;;5.30;0.90;;;14.00;99.90;;;14.29;100.00;100838.81;5187365;28;20108;-51
2022/09/17 08:05:15;;;;;;;4.43;1.05;;;14.10;99.90;;;14.37;100.00;100841.59;5187164;28;20052;-52
2022/09/17 08:07:50;;;;;;;3.60;0.90;;;14.10;99.90;;;14.42;100.00;100845.19;5187145;28;20042;-51
2022/09/17 08:10:25;;;;;;;6.18;1.35;;;14.20;99.90;;;14.49;100.00;100843.63;5187137;28;20050;-51
2022/09/17 08:12:59;;;;;;;4.97;0.80;;;14.20;99.90;;;15.05;100.00;100849.00;5187344;28;20070;-52
2022/09/17 08:15:31;;;;;;;1.98;0.80;;;14.50;99.90;;;15.88;100.00;100843.34;5186780;28;20083;-53
2022/09/17 08:18:03;;;;;;;6.85;1.52;;;15.00;99.90;;;17.03;97.40;100843.88;5187170;28;20475;-52
2022/09/17 08:20:35;;;;;;;6.18;1.00;;;15.70;99.90;;;17.78;93.72;100838.31;5185846;28;20054;-52
2022/09/17 08:23:08;;;;;;;2.83;0.68;;;16.40;99.90;;;18.32;88.89;100835.09;5186660;28;20124;-52
2022/09/17 08:25:40;;;;;;;4.50;1.23;;;16.90;99.90;;;19.22;83.31;100837.91;5186763;28;20049;-51
2022/09/17 08:28:13;;;;;;;3.03;0.70;;;17.60;98.50;;;19.86;80.44;100847.56;5186808;28;20487;-50
2022/09/17 08:30:47;;;;;;;3.75;0.80;;;18.10;97.30;;;19.98;77.63;100839.59;5186630;28;20049;-50
2022/09/17 08:33:20;;;;;;;3.53;0.77;;;18.40;95.70;;;19.83;77.65;100839.66;5186944;28;20100;-50
2022/09/17 08:35:53;;;;;;;4.25;0.73;;;18.50;95.10;;;20.06;76.79;100842.22;5186539;28;20046;-50
2022/09/17 08:38:25;;;;;;;3.10;0.73;;;18.70;94.60;;;20.10;75.83;100838.69;5186774;28;20045;-51
2022/09/17 08:41:18;;;;;;;5.78;0.85;;;18.80;93.70;;;19.79;75.95;100838.75;5186462;28;20517;-50
2022/09/17 08:44:07;;;;;;;2.70;0.82;;;18.70;93.20;;;19.56;77.51;100832.63;5186525;28;20411;-52
2022/09/17 08:46:47;;;;;;;4.20;0.75;;;18.60;93.50;;;19.17;77.90;100842.34;5186230;28;20572;-50
2022/09/17 08:49:30;;;;;;;3.58;0.80;;;18.50;93.50;;;18.55;78.36;100836.91;5186971;28;20053;-52
2022/09/17 08:53:09;;;;;;;5.05;0.93;;;18.00;93.00;;;17.69;80.97;100852.28;5187199;28;20057;-52
2022/09/17 08:55:43;;;;;;;;;;;17.50;93.60;;;17.17;83.73;100838.72;5188017;28;20415;-52
2022/09/17 08:58:37;;;;;;;3.45;0.80;;;17.00;94.70;;;16.85;85.66;100834.91;5187176;28;19925;-52
2022/09/17 09:01:24;;;;;;;6.28;0.82;;;16.70;95.50;;;16.46;86.98;100847.63;5187284;28;20502;-49
2022/09/17 09:04:23;;;;;;;6.95;1.23;;;16.30;95.90;;;16.47;87.33;100841.47;5187295;28;20128;-51
2022/09/17 09:07:02;;;;;;;3.67;0.68;;;16.20;96.40;;;16.55;88.41;100836.31;5187202;28;20129;-50
2022/09/17 09:09:40;;;;;;;3.63;0.88;;;16.20;97.00;;;16.99;90.11;100834.16;5186019;28;20062;-50
2022/09/17 09:12:19;;;;;;;4.47;0.63;;;16.50;97.80;;;17.48;87.18;100833.69;5185929;28;20045;-51
2022/09/17 09:14:58;;;;;;;4.35;1.10;;;16.90;96.90;;;17.68;85.73;100839.09;5186180;28;20411;-53
2022/09/17 09:17:38;;;;;;;4.18;0.70;;;17.20;96.10;;;17.95;84.51;100841.06;5185732;28;20049;-53
2022/09/17 09:20:19;;;;;;;2.90;0.82;;;17.50;95.70;;;18.05;81.31;100837.56;5185623;28;20042;-52
2022/09/17 09:22:52;;;;;;;2.67;0.70;;;17.60;94.30;;;18.18;82.14;100828.84;5185814;28;20042;-51
2022/09/17 09:25:27;;;;;;;4.03;0.80;;;17.70;94.40;;;18.23;79.78;100826.22;5185624;28;20038;-53
2022/09/17 09:28:18;;;;;;;4.75;0.90;;;17.80;93.40;;;18.03;81.01;100842.84;5185545;28;20541;-50
2022/09/17 09:31:03;;;;;;;3.30;1.00;;;17.70;93.50;;;17.85;80.44;100830.44;5185456;28;20060;-50
2022/09/17 09:33:41;;;;;;;4.10;0.88;;;17.60;93.20;;;17.83;80.99;100837.47;5185480;28;20517;-51
2022/09/17 09:36:20;;;;;;;4.80;1.38;;;17.50;93.40;;;17.74;81.34;100833.91;5185647;28;20056;-51
2022/09/17 09:39:00;;;;;;;3.55;1.33;;;17.50;93.50;;;17.48;81.72;100838.97;5184285;28;20069;-52
2022/09/17 09:41:40;;;;;;;3.50;0.90;;;17.20;93.50;;;17.27;81.50;100844.94;5185175;28;20053;-50
2022/09/17 09:44:14;;;;;;;3.15;0.85;;;17.10;93.30;;;17.32;82.66;100838.84;5183933;28;20506;-52
2022/09/17 09:47:18;;;;;;;2.85;0.73;;;17.10;93.90;;;17.44;80.76;100832.78;5185254;28;20046;-51
2022/09/17 09:50:15;;;;;;;3.25;1.02;;;17.10;93.40;;;17.22;78.85;100826.47;5185130;28;20046;-52
2022/09/17 09:53:01;;;;;;;4.55;1.27;;;17.00;92.30;;;17.19;80.48;100834.34;5185267;28;20049;-51
2022/09/17 09:56:07;;;;;;;2.92;0.80;;;16.90;92.90;;;17.55;81.85;100836.38;5184913;28;20053;-51
2022/09/17 09:58:41;;;;;;;2.75;0.55;;;17.10;93.90;;;17.57;80.35;100834.63;5183696;28;20049;-51
2022/09/17 10:01:16;;;;;;;2.97;0.80;;;17.20;93.10;;;17.37;80.57;100844.16;5184871;28;20046;-52
2022/09/17 10:03:50;;;;;;;0.80;0.57;;;17.10;92.90;;;17.14;81.84;100843.06;5185063;28;20046;-51
2022/09/17 10:06:25;;;;;;;2.95;1.05;;;17.00;93.20;;;17.14;83.29;100843.06;5185175;28;20052;-51
2022/09/17 10:09:12;;;;;;;2.28;1.17;;;16.90;93.90;;;17.51;83.72;100839.84;5185337;28;20382;-51
2022/09/17 10:12:01;;;;;;;1.90;0.60;;;17.10;94.40;;;17.89;82.09;100831.34;5184769;28;20038;-51
2022/09/17 10:14:35;;;;;;;3.97;0.93;;;17.40;93.90;;;17.84;80.15;100818.13;5185022;28;20037;-51
2022/09/17 10:17:14;;;;;;;;;;;17.40;93.00;;;17.52;80.52;100819.66;5184476;28;20072;-51
2022/09/17 10:20:09;;;;;;;13.05;3.05;;;17.20;92.80;;;17.41;79.22;100832.78;5184493;28;19921;-51
2022/09/17 10:22:44;;;;;;;2.22;0.63;;;17.10;92.20;;;17.26;78.92;100833.50;5184678;28;20049;-50
2022/09/17 10:25:29;;;;;;;2.22;0.80;;;17.00;92.10;;;16.99;79.44;100823.63;5184861;28;20042;-52
2022/09/17 10:28:04;;;;;;;2.85;0.70;;;16.80;92.10;;;16.93;80.48;100823.56;5184686;28;20049;-51
2022/09/17 10:30:36;;;;;;;4.97;1.08;;;16.70;92.50;;;16.89;79.82;100815.63;5184451;28;20038;-51
2022/09/17 10:33:28;;;;;;;4.72;0.88;;;16.70;92.30;;;16.72;80.42;100812.84;5184754;28;20773;-51
2022/09/17 10:36:05;;;;;;;1.83;0.70;;;16.50;92.40;;;16.65;81.85;100827.66;5184258;28;20048;-50
2022/09/17 10:38:40;;;;;;;4.47;0.50;;;16.50;93.00;;;16.75;81.48;100815.47;5184244;28;20406;-50
2022/09/17 10:41:20;;;;;;;3.65;0.70;;;16.50;93.00;;;16.84;79.35;100826.13;5184168;28;20050;-50
2022/09/17 10:43:52;;;;;;;2.80;0.68;;;16.60;92.20;;;17.03;79.79;100814.00;5182974;28;20086;-51
2022/09/17 10:46:28;;;;;;;3.45;0.65;;;16.70;92.40;;;17.44;78.71;100821.38;5184002;28;20060;-50
2022/09/17 10:49:11;;;;;;;4.22;0.77;;;16.90;92.40;;;17.67;76.84;100813.59;5199399;28;20546;-51